Time;durP1;ratioP1;P1;durP2;ratioP2;P2;SDS_P1;SDS_P2;PMS_P1;PMS_P2;Temp;Humidity;BMP_temperature;BMP_pressure;BME280_temperature;BME280_humidity;BME280_pressure;Samples;Min_cycle;Max_cycle;Signal;HPM_P1;HPM_P2
2021/06/11 00:00:33;;;;;;;10.78;7.35;;;;;;;16.28;78.11;99575.89;1762341;80;21103;-77
2021/06/11 00:03:00;;;;;;;8.13;6.80;;;;;;;16.28;78.06;99574.05;1763457;80;21045;-77
2021/06/11 00:05:26;;;;;;;8.83;7.30;;;;;;;16.28;77.97;99575.89;1762725;80;20972;-78
2021/06/11 00:07:52;;;;;;;10.45;7.10;;;;;;;16.26;77.84;99584.06;1733231;80;22515;-77
2021/06/11 00:10:19;;;;;;;8.00;7.20;;;;;;;16.24;77.80;99584.75;1756291;80;20948;-77
2021/06/11 00:12:45;;;;;;;8.25;7.25;;;;;;;16.19;77.77;99579.61;1750146;80;20983;-78
2021/06/11 00:15:14;;;;;;;8.20;7.40;;;;;;;16.16;77.83;99575.98;1765531;79;21028;-77
2021/06/11 00:17:40;;;;;;;7.95;7.15;;;;;;;16.15;77.96;99579.66;1738968;79;20952;-77
2021/06/11 00:20:08;;;;;;;7.67;6.97;;;;;;;16.15;78.00;99580.48;1770055;79;21799;-77
2021/06/11 00:22:37;;;;;;;8.20;7.17;;;;;;;16.15;78.06;99582.31;1746457;79;21107;-77
2021/06/11 00:25:10;;;;;;;8.15;7.35;;;;;;;16.15;78.11;99583.66;1735880;81;21446;-77
2021/06/11 00:27:36;;;;;;;8.23;7.35;;;;;;;16.16;78.11;99587.47;1731576;79;21080;-80
2021/06/11 00:30:06;;;;;;;9.05;7.33;;;;;;;16.18;78.14;99580.12;1718290;81;21052;-77
2021/06/11 00:32:34;;;;;;;7.72;7.00;;;;;;;16.19;78.12;99579.61;1676240;83;21815;-78
2021/06/11 00:35:00;;;;;;;9.48;7.22;;;;;;;16.18;78.13;99581.95;1728740;82;21035;-77
2021/06/11 00:37:28;;;;;;;9.00;6.58;;;;;;;16.14;78.19;99584.66;1737979;81;21412;-77
2021/06/11 00:39:54;;;;;;;8.53;7.00;;;;;;;16.10;78.24;99587.33;1737965;81;21048;-77
2021/06/11 00:42:21;;;;;;;9.75;7.10;;;;;;;16.06;78.21;99583.38;1756317;80;21347;-78
2021/06/11 00:44:47;;;;;;;7.55;6.95;;;;;;;16.04;78.27;99584.89;1763111;80;22468;-77
2021/06/11 00:47:14;;;;;;;8.70;6.90;;;;;;;16.02;78.30;99579.74;1735491;80;21016;-77
2021/06/11 00:49:41;;;;;;;7.75;7.05;;;;;;;15.99;78.46;99584.06;1724071;82;21171;-77
2021/06/11 00:52:08;;;;;;;7.83;7.03;;;;;;;15.99;78.43;99580.58;1756779;80;21035;-77
2021/06/11 00:54:35;;;;;;;7.65;6.85;;;;;;;15.98;78.49;99577.59;1770677;80;21035;-77
2021/06/11 00:57:03;;;;;;;7.80;6.97;;;;;;;15.96;78.54;99577.77;1764009;80;22668;-78
2021/06/11 00:59:30;;;;;;;7.33;6.67;;;;;;;15.93;78.56;99576.80;1701190;81;21464;-77
2021/06/11 01:01:56;;;;;;;8.40;7.60;;;;;;;15.90;78.66;99574.97;1769191;80;21055;-77
2021/06/11 01:04:23;;;;;;;8.10;7.30;;;;;;;15.87;78.84;99576.16;1734550;80;21111;-77
2021/06/11 01:06:51;;;;;;;8.90;7.30;;;;;;;15.90;78.98;99578.97;1750490;79;21002;-77
2021/06/11 01:09:17;;;;;;;8.93;8.03;;;;;;;15.91;79.07;99581.95;1749358;79;23350;-78
2021/06/11 01:11:45;;;;;;;11.12;7.80;;;;;;;15.92;79.58;99580.94;1766479;80;21474;-76
2021/06/11 01:14:12;;;;;;;9.35;8.45;;;;;;;15.89;79.81;99574.14;1764539;79;20979;-78
2021/06/11 01:16:40;;;;;;;9.23;8.33;;;;;;;15.90;80.07;99581.13;1761364;79;21020;-78
2021/06/11 01:19:07;;;;;;;10.13;8.08;;;;;;;15.90;80.22;99577.13;1766672;80;21023;-77
2021/06/11 01:21:37;;;;;;;9.88;8.45;;;;;;;15.92;80.38;99578.28;1755265;79;22670;-77
2021/06/11 01:24:14;;;;;;;9.08;8.28;;;;;;;15.93;80.45;99582.13;1747085;80;20921;-77
2021/06/11 01:26:38;;;;;;;9.95;8.70;;;;;;;15.95;80.61;99580.62;1748852;79;21003;-77
2021/06/11 01:29:08;;;;;;;9.40;8.50;;;;;;;15.95;80.73;99580.11;1728677;82;21122;-77
2021/06/11 01:31:38;;;;;;;9.20;8.05;;;;;;;15.94;80.93;99582.45;1724944;81;21016;-77
2021/06/11 01:34:10;;;;;;;8.83;7.92;;;;;;;15.93;80.96;99582.13;1692916;82;21903;-78
2021/06/11 01:36:45;;;;;;;10.75;8.25;;;;;;;15.94;80.95;99583.78;1737529;82;21433;-77
2021/06/11 01:39:15;;;;;;;9.80;8.75;;;;;;;15.95;81.06;99586.77;1687589;83;21577;-76
2021/06/11 01:41:41;;;;;;;10.85;8.35;;;;;;;15.92;81.16;99592.45;1693537;82;21079;-77
2021/06/11 01:44:09;;;;;;;9.35;8.30;;;;;;;15.92;81.19;99591.13;1695124;83;21000;-77
2021/06/11 01:46:36;;;;;;;9.35;8.45;;;;;;;15.93;81.26;99590.12;1688575;83;22489;-78
2021/06/11 01:49:03;;;;;;;9.48;8.58;;;;;;;15.91;81.31;99590.77;1745947;80;21008;-78
2021/06/11 01:51:30;;;;;;;8.73;7.83;;;;;;;15.89;81.39;99587.96;1752284;80;20880;-78
2021/06/11 01:53:59;;;;;;;9.80;8.15;;;;;;;15.89;81.38;99590.13;1684528;81;21359;-78
2021/06/11 01:56:26;;;;;;;10.20;8.48;;;;;;;15.90;81.37;99594.44;1759052;80;20998;-77
2021/06/11 01:58:52;;;;;;;9.63;7.85;;;;;;;15.91;81.40;99595.27;1696970;80;22506;-78
2021/06/11 02:01:20;;;;;;;9.03;8.10;;;;;;;15.90;81.40;99596.27;1760678;79;21963;-77
2021/06/11 02:03:47;;;;;;;9.53;8.60;;;;;;;15.89;81.43;99594.12;1762968;80;21068;-78
2021/06/11 02:06:16;;;;;;;9.20;8.18;;;;;;;15.89;81.49;99591.45;1714549;80;21102;-77
2021/06/11 02:08:49;;;;;;;9.25;8.35;;;;;;;15.90;81.48;99592.28;1747538;80;21068;-78
2021/06/11 02:11:16;;;;;;;9.43;8.60;;;;;;;15.93;81.45;99595.45;1764589;80;22755;-78
2021/06/11 02:13:45;;;;;;;9.78;8.78;;;;;;;15.95;81.39;99596.09;1733844;80;20938;-77
2021/06/11 02:16:12;;;;;;;10.75;8.95;;;;;;;15.94;81.39;99597.09;1750011;80;21096;-77
2021/06/11 02:18:39;;;;;;;9.43;8.48;;;;;;;15.92;81.44;99595.13;1742894;80;21008;-77
2021/06/11 02:21:06;;;;;;;10.08;9.08;;;;;;;15.92;81.45;99600.45;1746260;80;21060;-77
2021/06/11 02:23:34;;;;;;;9.78;8.63;;;;;;;15.94;81.51;99598.43;1758427;80;21813;-78
2021/06/11 02:26:03;;;;;;;9.73;8.73;;;;;;;15.93;81.51;99600.77;1749140;80;20983;-77
2021/06/11 02:28:29;;;;;;;9.53;8.58;;;;;;;15.96;81.50;99603.58;1753837;80;21083;-78
2021/06/11 02:30:59;;;;;;;9.50;8.70;;;;;;;15.98;81.50;99605.05;1760126;80;21070;-78
2021/06/11 02:33:26;;;;;;;10.05;8.98;;;;;;;15.99;81.52;99601.89;1706794;81;21028;-78
2021/06/11 02:35:56;;;;;;;9.85;8.85;;;;;;;16.00;81.53;99608.37;1736109;81;22682;-78
2021/06/11 02:38:23;;;;;;;9.55;8.65;;;;;;;15.99;81.62;99606.70;1760940;80;21016;-77
2021/06/11 02:40:50;;;;;;;10.20;9.20;;;;;;;15.98;81.69;99602.39;1777019;80;20960;-78
2021/06/11 02:43:18;;;;;;;10.13;9.13;;;;;;;15.99;81.72;99606.70;1745646;80;21424;-77
2021/06/11 02:45:54;;;;;;;10.40;8.80;;;;;;;16.02;81.75;99602.89;1746007;80;21008;-77
2021/06/11 02:48:35;;;;;;;12.53;9.50;;;;;;;16.03;81.84;99608.03;1734583;81;21813;-77
2021/06/11 02:51:05;;;;;;;10.53;9.40;;;;;;;16.06;81.93;99610.02;1739806;80;20941;-78
2021/06/11 02:53:32;;;;;;;11.00;9.35;;;;;;;16.06;82.01;99602.02;1757577;80;21035;-78
2021/06/11 02:56:03;;;;;;;10.75;9.28;;;;;;;16.07;82.11;99601.84;1736579;80;21030;-77
2021/06/11 02:58:41;;;;;;;10.25;9.15;;;;;;;16.08;82.14;99601.34;1771067;79;20976;-77
2021/06/11 03:01:08;;;;;;;10.32;9.33;;;;;;;16.10;82.23;99599.32;1752005;80;21853;-78
2021/06/11 03:03:34;;;;;;;11.40;9.00;;;;;;;16.09;82.29;99594.50;1725754;80;21005;-79
2021/06/11 03:06:02;;;;;;;10.88;9.78;;;;;;;16.11;82.43;99600.47;1763762;79;20945;-79
2021/06/11 03:08:31;;;;;;;10.38;9.30;;;;;;;16.09;82.54;99603.82;1756350;79;21003;-79
2021/06/11 03:11:04;;;;;;;11.80;9.60;;;;;;;16.10;82.63;99607.31;1744871;79;21649;-79
2021/06/11 03:13:30;;;;;;;11.68;10.50;;;;;;;16.11;82.67;99604.97;1733534;80;21838;-78
2021/06/11 03:15:57;;;;;;;10.48;9.43;;;;;;;16.12;82.74;99608.81;1734033;82;21000;-78
2021/06/11 03:18:47;;;;;;;11.38;10.20;;;;;;;16.12;82.85;99611.98;1770018;80;20917;-78
2021/06/11 03:21:28;;;;;;;11.05;9.85;;;;;;;16.12;82.88;99610.66;1767150;79;21047;-78
2021/06/11 03:24:09;;;;;;;12.60;11.25;;;;;;;16.12;82.95;99611.98;1742892;80;21143;-78
2021/06/11 03:26:47;;;;;;;10.95;9.53;;;;;;;16.10;83.08;99617.97;1744679;80;21788;-78
2021/06/11 03:29:18;;;;;;;10.72;9.63;;;;;;;16.10;83.15;99615.30;1752723;80;21504;-78
2021/06/11 03:31:52;;;;;;;11.53;10.30;;;;;;;16.16;83.15;99620.77;1746743;80;20941;-76
2021/06/11 03:34:22;;;;;;;11.88;10.60;;;;;;;16.18;83.15;99615.26;1722384;81;21501;-76
2021/06/11 03:36:50;;;;;;;11.45;10.35;;;;;;;16.17;83.21;99618.94;1739718;81;21075;-77
2021/06/11 03:39:29;;;;;;;13.45;10.63;;;;;;;16.17;83.27;99621.09;1720114;81;22452;-78
2021/06/11 03:41:56;;;;;;;10.98;9.88;;;;;;;16.16;83.34;99621.27;1729424;80;20988;-77
2021/06/11 03:44:23;;;;;;;11.30;10.20;;;;;;;16.18;83.37;99627.25;1747607;79;21039;-77
2021/06/11 03:46:50;;;;;;;11.78;10.58;;;;;;;16.18;83.44;99630.74;1751413;80;21078;-77
2021/06/11 03:49:19;;;;;;;10.78;9.68;;;;;;;16.19;83.48;99627.57;1759849;80;21072;-77
2021/06/11 03:51:45;;;;;;;13.00;10.15;;;;;;;16.20;83.52;99631.39;1754031;80;21863;-79
2021/06/11 03:54:13;;;;;;;9.83;8.85;;;;;;;16.22;83.51;99633.40;1760313;79;20925;-80
2021/06/11 03:56:40;;;;;;;11.57;10.32;;;;;;;16.25;83.49;99633.54;1746106;79;20949;-82
2021/06/11 03:59:10;;;;;;;10.50;9.40;;;;;;;16.27;83.47;99636.85;1744705;80;21055;-78
2021/06/11 04:01:42;;;;;;;10.55;9.55;;;;;;;16.26;83.47;99637.86;1761527;79;20932;-79
2021/06/11 04:04:09;;;;;;;13.35;10.18;;;;;;;16.25;83.50;99634.87;1743268;80;21878;-81
2021/06/11 04:06:37;;;;;;;11.05;9.90;;;;;;;16.22;83.49;99636.06;1755302;79;21038;-80
2021/06/11 04:09:10;;;;;;;11.18;10.08;;;;;;;16.20;83.64;99643.37;1757702;78;21039;-86
2021/06/11 04:11:46;;;;;;;11.63;10.38;;;;;;;16.17;83.68;99640.25;1750515;80;21015;-73
2021/06/11 04:14:26;;;;;;;10.48;9.48;;;;;;;16.18;83.72;99640.57;1763078;78;20960;-74
2021/06/11 04:16:57;;;;;;;11.60;9.25;;;;;;;16.21;83.75;99648.20;1770124;79;22671;-72
2021/06/11 04:19:26;;;;;;;10.50;9.43;;;;;;;16.21;83.81;99646.88;1758778;79;20936;-75
2021/06/11 04:21:54;;;;;;;10.85;9.70;;;;;;;16.22;83.86;99651.22;1712891;81;21483;-73
2021/06/11 04:24:24;;;;;;;10.85;9.85;;;;;;;16.25;83.87;99649.02;1715816;81;21116;-83
2021/06/11 04:26:51;;;;;;;12.90;9.25;;;;;;;16.27;83.89;99652.84;1765038;79;21019;-77
2021/06/11 04:29:17;;;;;;;12.78;9.55;;;;;;;16.28;83.90;99659.32;1730127;80;21806;-81
2021/06/11 04:31:44;;;;;;;11.22;10.13;;;;;;;16.30;83.94;99662.63;1755631;80;20925;-80
2021/06/11 04:34:16;;;;;;;10.38;9.38;;;;;;;16.30;84.01;99666.63;1743836;80;21369;-82
2021/06/11 04:36:44;;;;;;;11.43;10.10;;;;;;;16.31;84.09;99663.49;1752044;80;21024;-79
2021/06/11 04:39:10;;;;;;;10.32;9.20;;;;;;;16.35;84.10;99668.78;1736473;79;20969;-78
2021/06/11 04:41:37;;;;;;;11.73;9.40;;;;;;;16.39;84.10;99666.59;1743508;79;21736;-82
2021/06/11 04:44:05;;;;;;;10.30;9.20;;;;;;;16.42;84.17;99669.75;1737313;79;21636;-83
2021/06/11 04:46:33;;;;;;;12.05;10.00;;;;;;;16.46;84.15;99666.22;1756335;80;21055;-83
2021/06/11 04:48:59;;;;;;;13.00;10.13;;;;;;;16.50;84.17;99667.50;1750285;79;21074;-83
2021/06/11 04:51:26;;;;;;;12.28;10.32;;;;;;;16.51;84.17;99670.53;1749194;79;21051;-83
2021/06/11 04:53:53;;;;;;;10.68;9.70;;;;;;;16.53;84.22;99668.00;1773522;78;21818;-83
2021/06/11 04:56:19;;;;;;;11.65;10.45;;;;;;;16.58;84.22;99668.78;1765641;80;20992;-83
2021/06/11 04:58:51;;;;;;;11.88;10.63;;;;;;;16.60;84.22;99671.63;1773330;79;20936;-82
2021/06/11 05:01:18;;;;;;;10.70;9.60;;;;;;;16.63;84.21;99666.94;1766198;80;21467;-82
2021/06/11 05:03:44;;;;;;;10.95;9.85;;;;;;;16.62;84.27;99671.44;1775586;80;21047;-83
2021/06/11 05:06:11;;;;;;;10.55;9.50;;;;;;;16.63;84.28;99677.09;1772252;79;22540;-83
2021/06/11 05:08:38;;;;;;;11.03;10.03;;;;;;;16.63;84.28;99678.43;1771834;78;20832;-83
2021/06/11 05:11:04;;;;;;;11.38;9.10;;;;;;;16.59;84.34;99683.27;1764712;79;21181;-83
2021/06/11 05:13:31;;;;;;;10.72;9.70;;;;;;;16.56;84.38;99680.14;1753934;80;21783;-83
2021/06/11 05:15:58;;;;;;;11.48;10.35;;;;;;;16.55;84.47;99679.31;1755923;80;20936;-82
2021/06/11 05:18:28;;;;;;;12.25;10.98;;;;;;;16.52;84.54;99684.18;1755820;79;22194;-81
2021/06/11 05:20:55;;;;;;;10.98;9.83;;;;;;;16.53;84.62;99684.50;1734252;79;21014;-84
2021/06/11 05:23:21;;;;;;;10.95;9.85;;;;;;;16.53;84.64;99680.00;1725969;79;21007;-83
2021/06/11 05:25:48;;;;;;;10.78;9.78;;;;;;;16.54;84.67;99681.66;1759013;79;20940;-78
2021/06/11 05:28:16;;;;;;;13.08;9.80;;;;;;;16.55;84.65;99681.15;1745495;79;21000;-78
2021/06/11 05:30:43;;;;;;;10.45;9.45;;;;;;;16.57;84.66;99681.29;1764348;79;21823;-78
2021/06/11 05:33:10;;;;;;;10.80;9.68;;;;;;;16.57;84.67;99681.29;1772599;79;21311;-77
2021/06/11 05:35:36;;;;;;;9.68;8.75;;;;;;;16.62;84.70;99679.95;1743627;80;21085;-77
2021/06/11 05:38:07;;;;;;;12.25;8.93;;;;;;;16.65;84.72;99679.58;1733718;82;21049;-77
2021/06/11 05:40:34;;;;;;;11.60;8.85;;;;;;;16.65;84.66;99677.74;1721533;81;21067;-77
2021/06/11 05:43:00;;;;;;;8.45;7.55;;;;;;;16.67;84.66;99680.23;1729234;80;21831;-78
2021/06/11 05:45:27;;;;;;;7.67;6.97;;;;;;;16.68;84.62;99673.41;1732871;80;21040;-78
2021/06/11 05:47:54;;;;;;;6.87;6.28;;;;;;;16.66;84.57;99679.91;1769458;79;21012;-78
2021/06/11 05:50:20;;;;;;;6.85;5.95;;;;;;;16.63;84.52;99672.27;1755363;79;21008;-76
2021/06/11 05:52:47;;;;;;;6.70;6.00;;;;;;;16.63;84.53;99673.09;1730753;80;21063;-77
2021/06/11 05:55:14;;;;;;;7.00;5.80;;;;;;;16.65;84.46;99674.25;1747102;79;21816;-77
2021/06/11 05:57:42;;;;;;;6.17;5.58;;;;;;;16.65;84.39;99673.74;1732514;81;21086;-77
2021/06/11 06:00:10;;;;;;;6.50;5.58;;;;;;;16.62;84.38;99673.28;1740513;81;21528;-76
2021/06/11 06:02:36;;;;;;;5.75;5.20;;;;;;;16.63;84.40;99684.27;1741484;80;20984;-77
2021/06/11 06:05:04;;;;;;;6.20;5.50;;;;;;;16.63;84.35;99684.27;1751012;80;21000;-77
2021/06/11 06:07:36;;;;;;;5.62;5.12;;;;;;;16.65;84.26;99687.08;1729746;81;21808;-79
2021/06/11 06:10:07;;;;;;;5.55;5.05;;;;;;;16.69;84.29;99689.73;1719893;79;20953;-79
2021/06/11 06:12:34;;;;;;;7.28;5.37;;;;;;;16.74;84.21;99697.22;1730876;81;21056;-77
2021/06/11 06:15:03;;;;;;;7.00;5.20;;;;;;;16.76;84.03;99697.36;1761068;78;21149;-78
2021/06/11 06:17:34;;;;;;;5.40;4.90;;;;;;;16.81;83.99;99698.17;1763862;78;20999;-77
2021/06/11 06:19:57;;;;;;;5.97;4.97;;;;;;;16.87;83.97;99704.10;1769341;79;22677;-77
2021/06/11 06:22:24;;;;;;;5.00;4.60;;;;;;;16.94;83.95;99702.39;1743143;80;20988;-75
2021/06/11 06:24:50;;;;;;;5.67;5.17;;;;;;;16.96;83.47;99703.03;1750833;79;21051;-76
2021/06/11 06:27:16;;;;;;;4.60;4.20;;;;;;;17.01;83.45;99703.34;1757406;79;21063;-78
2021/06/11 06:29:43;;;;;;;5.60;4.92;;;;;;;17.06;83.33;99700.12;1764413;79;21081;-78
2021/06/11 06:32:09;;;;;;;4.90;4.50;;;;;;;17.11;83.22;99701.76;1759570;80;21824;-78
2021/06/11 06:34:36;;;;;;;4.97;4.58;;;;;;;17.12;83.08;99702.08;1759154;80;21507;-78
2021/06/11 06:37:03;;;;;;;6.22;4.90;;;;;;;17.10;83.01;99700.92;1685187;83;20968;-78
2021/06/11 06:39:29;;;;;;;5.45;4.95;;;;;;;17.15;82.94;99697.20;1700668;83;20988;-76
2021/06/11 06:41:58;;;;;;;5.78;5.28;;;;;;;17.19;82.63;99700.86;1730439;80;21510;-77
2021/06/11 06:44:24;;;;;;;6.25;5.65;;;;;;;17.19;82.24;99702.20;1712965;82;22356;-77
2021/06/11 06:46:51;;;;;;;5.47;5.03;;;;;;;17.15;82.07;99698.53;1736947;81;20984;-78
2021/06/11 06:49:17;;;;;;;5.42;4.92;;;;;;;17.10;81.96;99698.27;1757341;79;21008;-77
2021/06/11 06:51:44;;;;;;;5.60;5.10;;;;;;;17.07;81.98;99698.59;1752746;79;21024;-78
2021/06/11 06:54:11;;;;;;;5.60;4.58;;;;;;;17.02;81.97;99698.33;1766623;78;21043;-78
2021/06/11 06:56:37;;;;;;;4.75;4.35;;;;;;;17.04;82.02;99699.48;1719454;80;21841;-77
2021/06/11 06:59:04;;;;;;;6.12;4.80;;;;;;;17.07;82.06;99699.93;1764366;80;20999;-77
2021/06/11 07:01:31;;;;;;;5.92;5.42;;;;;;;17.08;82.04;99695.42;1735033;79;21405;-77
2021/06/11 07:03:59;;;;;;;6.40;4.35;;;;;;;17.11;82.10;99705.76;1734344;80;21359;-76
2021/06/11 07:06:26;;;;;;;5.00;4.50;;;;;;;17.13;82.21;99707.23;1772197;80;21035;-77
2021/06/11 07:08:53;;;;;;;6.30;5.70;;;;;;;17.17;82.22;99708.52;1757196;79;22234;-76
2021/06/11 07:11:20;;;;;;;5.58;4.92;;;;;;;17.17;82.29;99707.18;1763361;80;21307;-77
2021/06/11 07:13:50;;;;;;;5.17;4.75;;;;;;;17.22;82.54;99709.83;1769094;80;21044;-77
2021/06/11 07:16:17;;;;;;;5.72;5.20;;;;;;;17.25;82.64;99705.45;1762950;80;21125;-76
2021/06/11 07:18:44;;;;;;;5.80;5.30;;;;;;;17.26;82.71;99707.11;1764524;79;20948;-75
2021/06/11 07:21:12;;;;;;;6.00;5.17;;;;;;;17.32;82.91;99709.89;1757979;80;21812;-75
2021/06/11 07:23:39;;;;;;;7.33;5.30;;;;;;;17.41;82.92;99707.47;1742804;79;20979;-75
2021/06/11 07:26:07;;;;;;;5.92;5.42;;;;;;;17.53;83.10;99712.36;1756202;79;21004;-75
2021/06/11 07:28:35;;;;;;;6.25;5.62;;;;;;;17.57;82.86;99715.00;1766318;80;20984;-75
2021/06/11 07:31:05;;;;;;;6.47;5.50;;;;;;;17.62;82.78;99713.42;1763327;79;20965;-76
2021/06/11 07:33:32;;;;;;;6.58;5.00;;;;;;;17.65;82.62;99713.05;1759699;79;22429;-77
2021/06/11 07:35:58;;;;;;;5.55;5.05;;;;;;;17.66;82.42;99715.21;1715924;82;21458;-76
2021/06/11 07:38:25;;;;;;;5.85;5.35;;;;;;;17.66;82.34;99717.88;1730120;82;21454;-76
2021/06/11 07:40:53;;;;;;;5.30;4.80;;;;;;;17.67;82.27;99719.56;1726203;81;21615;-75
2021/06/11 07:43:21;;;;;;;6.00;5.50;;;;;;;17.69;82.41;99715.73;1748513;80;21404;-76
2021/06/11 07:45:49;;;;;;;6.00;5.47;;;;;;;17.75;82.37;99718.15;1749826;79;21862;-76
2021/06/11 07:48:16;;;;;;;6.30;5.80;;;;;;;17.83;82.36;99715.39;1712158;81;21066;-77
2021/06/11 07:50:44;;;;;;;6.10;5.60;;;;;;;17.92;82.33;99720.14;1724353;80;21447;-77
2021/06/11 07:53:10;;;;;;;5.85;5.35;;;;;;;18.01;82.40;99713.17;1734675;80;20961;-77
2021/06/11 07:55:37;;;;;;;6.20;5.05;;;;;;;18.14;82.31;99706.33;1762765;80;20971;-76
2021/06/11 07:58:03;;;;;;;5.60;4.70;;;;;;;18.23;82.21;99706.55;1772839;80;21711;-76
2021/06/11 08:00:30;;;;;;;8.80;4.80;;;;;;;18.28;81.88;99708.98;1762390;81;21417;-75
2021/06/11 08:02:57;;;;;;;4.60;4.20;;;;;;;18.42;81.84;99706.45;1756301;80;20976;-75
2021/06/11 08:05:24;;;;;;;4.40;4.03;;;;;;;18.57;81.78;99709.93;1762649;79;21043;-75
2021/06/11 08:07:53;;;;;;;5.92;4.33;;;;;;;18.60;81.01;99705.53;1766263;79;21436;-76
2021/06/11 08:10:20;;;;;;;4.30;3.90;;;;;;;18.60;80.44;99712.22;1762537;79;22575;-76
2021/06/11 08:12:46;;;;;;;4.03;3.10;;;;;;;18.65;80.40;99713.03;1768683;80;21165;-74
2021/06/11 08:15:13;;;;;;;3.37;3.08;;;;;;;18.70;79.19;99714.09;1755707;80;21023;-75
2021/06/11 08:17:40;;;;;;;3.87;3.40;;;;;;;18.75;79.07;99710.87;1757595;80;21072;-76
2021/06/11 08:20:08;;;;;;;3.67;3.35;;;;;;;18.79;78.79;99710.28;1761181;80;21043;-77
2021/06/11 08:22:36;;;;;;;2.80;2.50;;;;;;;18.79;78.22;99707.61;1768278;80;22462;-77
2021/06/11 08:25:05;;;;;;;2.60;2.40;;;;;;;18.83;78.38;99708.07;1724888;80;20991;-77
2021/06/11 08:27:32;;;;;;;2.37;2.12;;;;;;;18.92;78.26;99712.27;1732334;80;21399;-77
2021/06/11 08:29:58;;;;;;;2.47;2.22;;;;;;;19.08;78.22;99712.50;1742347;80;21467;-74
2021/06/11 08:32:24;;;;;;;2.12;1.92;;;;;;;19.13;76.84;99707.41;1761470;79;21063;-75
2021/06/11 08:34:51;;;;;;;6.47;1.70;;;;;;;19.08;76.58;99708.48;1773202;79;21827;-74
2021/06/11 08:37:20;;;;;;;2.95;1.55;;;;;;;19.13;76.63;99708.75;1760232;80;20992;-75
2021/06/11 08:39:49;;;;;;;1.60;1.37;;;;;;;19.12;76.40;99708.44;1759074;79;21182;-77
2021/06/11 08:42:14;;;;;;;2.02;1.37;;;;;;;19.13;76.18;99713.59;1767023;79;21621;-75
2021/06/11 08:44:42;;;;;;;1.40;1.25;;;;;;;19.19;76.24;99705.28;1751155;79;21015;-78
2021/06/11 08:47:08;;;;;;;1.80;1.00;;;;;;;19.23;75.46;99709.24;1752634;79;22225;-81
2021/06/11 08:49:35;;;;;;;1.10;1.00;;;;;;;19.13;74.60;99705.56;1759248;80;21070;-80
2021/06/11 08:52:03;;;;;;;0.88;0.88;;;;;;;19.08;74.94;99707.15;1737194;80;20925;-80
2021/06/11 08:54:30;;;;;;;3.55;1.00;;;;;;;19.07;74.84;99702.81;1759596;80;21019;-81
2021/06/11 08:56:56;;;;;;;2.00;0.78;;;;;;;18.99;74.44;99704.28;1726440;79;21090;-80
2021/06/11 08:59:23;;;;;;;3.20;0.80;;;;;;;18.97;74.54;99704.99;1749239;79;21811;-80
2021/06/11 09:01:50;;;;;;;0.80;0.80;;;;;;;18.96;74.29;99702.00;1725773;80;21039;-81
2021/06/11 09:04:38;;;;;;;1.07;0.98;;;;;;;18.94;74.68;99700.86;1762823;79;21063;-83
2021/06/11 09:07:33;;;;;;;1.00;0.82;;;;;;;18.96;74.79;99699.33;1743879;80;20999;-82
2021/06/11 09:10:08;;;;;;;1.02;0.95;;;;;;;18.97;74.82;99695.12;1751064;80;21031;-80
2021/06/11 09:12:41;;;;;;;1.10;0.90;;;;;;;19.08;74.66;99700.45;1729973;81;21749;-80
2021/06/11 09:15:12;;;;;;;;;;;;;;;19.25;75.05;99688.45;1752121;80;20963;-79
2021/06/11 09:17:46;;;;;;;1.27;0.90;;;;;;;19.45;74.69;99695.28;1755394;79;20482;-80
2021/06/11 09:20:18;;;;;;;1.95;1.10;;;;;;;19.54;73.50;99704.83;1723986;81;20993;-80
2021/06/11 09:22:56;;;;;;;1.65;1.27;;;;;;;19.61;72.89;99705.73;1744583;79;21048;-80
2021/06/11 09:25:43;;;;;;;1.47;1.12;;;;;;;19.67;72.16;99694.73;1738865;80;22470;-79
2021/06/11 09:28:14;;;;;;;2.80;1.40;;;;;;;19.79;72.03;99697.19;1740939;80;21059;-83
2021/06/11 09:30:46;;;;;;;1.87;1.70;;;;;;;20.00;70.90;99694.41;1711097;82;20972;-79
2021/06/11 09:33:18;;;;;;;2.05;1.80;;;;;;;20.09;70.39;99695.58;1722765;82;21044;-80
2021/06/11 09:35:54;;;;;;;1.72;1.60;;;;;;;20.13;69.72;99688.78;1723979;81;21145;-79
2021/06/11 09:38:25;;;;;;;2.00;1.80;;;;;;;20.24;70.38;99681.49;1740639;79;21834;-78
2021/06/11 09:41:02;;;;;;;1.98;1.77;;;;;;;20.50;70.21;99685.62;1721650;82;21097;-78
2021/06/11 09:43:30;;;;;;;2.47;2.27;;;;;;;20.61;68.94;99686.06;1735075;80;21017;-79
2021/06/11 09:46:10;;;;;;;3.75;2.65;;;;;;;20.75;68.83;99681.02;1745850;79;21008;-78
2021/06/11 09:48:50;;;;;;;2.62;2.17;;;;;;;20.84;67.19;99679.79;1753224;80;21052;-79
2021/06/11 09:51:23;;;;;;;2.77;2.20;;;;;;;20.82;67.04;99685.37;1705048;82;21839;-79
2021/06/11 09:53:50;;;;;;;2.83;1.95;;;;;;;20.94;67.40;99689.63;1712089;81;20960;-79
2021/06/11 09:56:26;;;;;;;4.40;1.95;;;;;;;21.04;66.40;99684.69;1719208;82;21395;-79
2021/06/11 09:58:55;;;;;;;1.82;1.72;;;;;;;21.21;67.07;99688.27;1682659;83;21088;-79
2021/06/11 10:01:21;;;;;;;1.77;1.67;;;;;;;21.32;66.71;99684.98;1735747;81;21050;-80
2021/06/11 10:03:50;;;;;;;2.45;1.82;;;;;;;21.14;65.83;99682.41;1757479;80;21822;-85
2021/06/11 10:06:18;;;;;;;3.75;2.10;;;;;;;20.83;65.77;99690.22;1763099;79;21447;-87
2021/06/11 10:08:50;;;;;;;2.33;2.02;;;;;;;20.62;66.65;99674.30;1759000;79;20968;-82
2021/06/11 10:11:26;;;;;;;3.87;1.80;;;;;;;20.54;67.42;99684.70;1767845;80;20986;-79
2021/06/11 10:13:55;;;;;;;2.37;1.50;;;;;;;20.65;67.46;99692.15;1771921;79;21015;-79
2021/06/11 10:16:22;;;;;;;1.70;1.60;;;;;;;20.94;67.38;99686.95;1757638;79;21820;-84
2021/06/11 10:18:48;;;;;;;1.35;1.20;;;;;;;21.07;66.74;99692.83;1755220;79;20928;-83
2021/06/11 10:21:15;;;;;;;1.50;1.40;;;;;;;21.08;64.72;99693.14;1735450;81;21108;-84
2021/06/11 10:23:42;;;;;;;1.45;1.30;;;;;;;21.15;65.30;99688.60;1765666;80;20956;-87
2021/06/11 10:26:12;;;;;;;2.30;1.30;;;;;;;21.29;65.53;99688.09;1746072;80;20972;-85
2021/06/11 10:28:49;;;;;;;1.85;1.22;;;;;;;21.41;64.00;99681.05;1731179;80;21812;-85
2021/06/11 10:31:19;;;;;;;1.60;1.30;;;;;;;21.48;64.47;99676.50;1755861;80;21079;-85
2021/06/11 10:33:51;;;;;;;4.08;1.17;;;;;;;21.67;64.56;99671.60;1724312;80;20965;-87
2021/06/11 10:36:33;;;;;;;0.90;0.90;;;;;;;21.86;61.76;99676.61;1739373;80;21008;-84
2021/06/11 10:39:15;;;;;;;1.40;0.90;;;;;;;21.93;61.19;99665.84;1749632;80;20972;-83
2021/06/11 10:42:08;;;;;;;1.70;1.00;;;;;;;21.93;60.72;99672.56;1758014;79;21816;-84
2021/06/11 10:44:50;;;;;;;0.95;0.93;;;;;;;21.79;60.42;99669.59;1742063;80;21000;-84
2021/06/11 10:47:22;;;;;;;1.40;1.20;;;;;;;21.46;60.38;99671.03;1736137;80;21076;-87
2021/06/11 10:50:10;;;;;;;1.27;0.98;;;;;;;21.42;61.56;99666.58;1748096;80;21012;-80
2021/06/11 10:52:49;;;;;;;1.75;1.20;;;;;;;21.60;61.94;99665.41;1742806;80;21083;-82
2021/06/11 10:55:34;;;;;;;1.37;1.27;;;;;;;21.87;60.82;99658.61;1752352;79;21784;-82
2021/06/11 10:58:12;;;;;;;1.35;1.20;;;;;;;21.99;61.22;99654.22;1714404;80;21008;-84
2021/06/11 11:00:40;;;;;;;1.22;0.85;;;;;;;22.26;61.87;99659.81;1731078;82;21099;-78
2021/06/11 11:03:08;;;;;;;2.45;1.10;;;;;;;22.35;58.16;99659.05;1693990;81;21547;-78
2021/06/11 11:05:39;;;;;;;1.82;1.20;;;;;;;22.22;58.78;99657.27;1735968;80;21011;-81
2021/06/11 11:08:09;;;;;;;1.62;1.30;;;;;;;22.13;59.63;99657.72;1747482;80;21819;-77
2021/06/11 11:10:52;;;;;;;1.32;1.20;;;;;;;22.16;59.84;99658.63;1734063;79;20972;-77
2021/06/11 11:13:19;;;;;;;1.30;1.20;;;;;;;21.96;59.82;99654.66;1760825;79;21023;-78
2021/06/11 11:15:50;;;;;;;1.50;1.40;;;;;;;21.97;60.93;99656.30;1700955;80;21067;-79
2021/06/11 11:18:31;;;;;;;1.20;1.10;;;;;;;22.08;61.31;99660.21;1728483;81;21510;-75
2021/06/11 11:20:58;;;;;;;1.30;1.20;;;;;;;22.31;61.00;99652.98;1714848;82;21825;-76
2021/06/11 11:23:27;;;;;;;2.35;1.17;;;;;;;22.55;60.77;99650.33;1692465;82;21697;-76
2021/06/11 11:25:54;;;;;;;3.80;1.02;;;;;;;22.82;58.86;99648.80;1724545;80;20936;-77
2021/06/11 11:28:20;;;;;;;1.25;1.10;;;;;;;22.99;57.31;99645.08;1753628;80;20924;-79
2021/06/11 11:30:48;;;;;;;2.50;1.00;;;;;;;22.94;57.58;99638.98;1759691;80;20945;-79
2021/06/11 11:33:16;;;;;;;2.77;1.10;;;;;;;23.14;58.31;99638.29;1723266;80;22627;-79
2021/06/11 11:35:46;;;;;;;2.55;1.12;;;;;;;23.54;57.18;99627.63;1740559;79;20890;-75
2021/06/11 11:38:13;;;;;;;3.92;1.30;;;;;;;23.83;54.34;99628.25;1744978;80;21059;-75
2021/06/11 11:40:42;;;;;;;1.72;1.12;;;;;;;23.88;55.53;99628.41;1761483;79;20992;-78